sensor_id;sensor_type;location;lat;lon;timestamp;pressure;altitude;pressure_sealevel;temperature;humidity
80137;BME280;76989;55.950;37.484;2024-03-02T00:01:20;100881.78;;;4.15;69.21
80137;BME280;76989;55.950;37.484;2024-03-02T00:03:46;100885.97;;;4.27;69.43
80137;BME280;76989;55.950;37.484;2024-03-02T00:06:12;100885.56;;;4.22;69.18
80137;BME280;76989;55.950;37.484;2024-03-02T00:08:39;100870.31;;;4.22;69.48
80137;BME280;76989;55.950;37.484;2024-03-02T00:11:05;100852.38;;;4.13;69.19
80137;BME280;76989;55.950;37.484;2024-03-02T00:13:31;100866.94;;;4.20;69.36
80137;BME280;76989;55.950;37.484;2024-03-02T00:15:58;100883.06;;;4.20;69.51
80137;BME280;76989;55.950;37.484;2024-03-02T00:18:26;100860.75;;;4.10;69.60
80137;BME280;76989;55.950;37.484;2024-03-02T00:20:56;100843.13;;;3.98;69.55
80137;BME280;76989;55.950;37.484;2024-03-02T00:23:30;100875.34;;;4.08;69.21
80137;BME280;76989;55.950;37.484;2024-03-02T00:25:57;100848.78;;;3.95;69.96
80137;BME280;76989;55.950;37.484;2024-03-02T00:28:27;100818.06;;;3.80;69.84
80137;BME280;76989;55.950;37.484;2024-03-02T00:31:11;100871.50;;;4.10;69.59
80137;BME280;76989;55.950;37.484;2024-03-02T00:33:45;100872.03;;;4.14;69.43
80137;BME280;76989;55.950;37.484;2024-03-02T00:36:13;100865.56;;;4.07;69.41
80137;BME280;76989;55.950;37.484;2024-03-02T00:38:49;100877.41;;;4.14;69.18
80137;BME280;76989;55.950;37.484;2024-03-02T00:41:31;100855.84;;;3.96;68.96
80137;BME280;76989;55.950;37.484;2024-03-02T00:44:04;100877.72;;;4.11;69.50
80137;BME280;76989;55.950;37.484;2024-03-02T00:46:36;100860.34;;;4.05;69.87
80137;BME280;76989;55.950;37.484;2024-03-02T00:49:23;100876.97;;;4.18;68.87
80137;BME280;76989;55.950;37.484;2024-03-02T00:51:51;100867.81;;;4.11;68.89
80137;BME280;76989;55.950;37.484;2024-03-02T00:54:22;100858.81;;;4.03;68.96
80137;BME280;76989;55.950;37.484;2024-03-02T00:56:50;100849.19;;;4.00;69.24
80137;BME280;76989;55.950;37.484;2024-03-02T00:59:16;100862.34;;;4.03;68.65
80137;BME280;76989;55.950;37.484;2024-03-02T01:01:43;100843.28;;;3.96;68.88
80137;BME280;76989;55.950;37.484;2024-03-02T01:04:09;100883.28;;;4.27;68.51
80137;BME280;76989;55.950;37.484;2024-03-02T01:06:35;100893.47;;;4.33;68.83
80137;BME280;76989;55.950;37.484;2024-03-02T01:09:02;100864.22;;;3.93;68.82
80137;BME280;76989;55.950;37.484;2024-03-02T01:11:28;100872.94;;;3.95;69.27
80137;BME280;76989;55.950;37.484;2024-03-02T01:13:55;100868.00;;;3.90;69.47
80137;BME280;76989;55.950;37.484;2024-03-02T01:16:22;100858.88;;;3.83;69.12
80137;BME280;76989;55.950;37.484;2024-03-02T01:18:48;100899.34;;;4.09;69.12
80137;BME280;76989;55.950;37.484;2024-03-02T01:21:14;100883.53;;;4.06;69.66
80137;BME280;76989;55.950;37.484;2024-03-02T01:23:40;100897.50;;;4.10;69.29
80137;BME280;76989;55.950;37.484;2024-03-02T01:26:06;100873.81;;;3.95;69.48
80137;BME280;76989;55.950;37.484;2024-03-02T01:28:33;100869.59;;;3.93;68.99
80137;BME280;76989;55.950;37.484;2024-03-02T01:30:59;100892.44;;;4.07;69.02
80137;BME280;76989;55.950;37.484;2024-03-02T01:33:25;100874.94;;;4.03;69.26
80137;BME280;76989;55.950;37.484;2024-03-02T01:35:51;100901.34;;;4.07;69.18
80137;BME280;76989;55.950;37.484;2024-03-02T01:38:17;100876.78;;;3.92;69.29
80137;BME280;76989;55.950;37.484;2024-03-02T01:40:43;100878.03;;;3.98;69.22
80137;BME280;76989;55.950;37.484;2024-03-02T01:43:10;100862.78;;;3.98;69.44
80137;BME280;76989;55.950;37.484;2024-03-02T01:45:36;100891.69;;;4.14;69.26
80137;BME280;76989;55.950;37.484;2024-03-02T01:48:07;100875.59;;;4.05;68.91
80137;BME280;76989;55.950;37.484;2024-03-02T01:50:33;100852.66;;;3.83;69.75
80137;BME280;76989;55.950;37.484;2024-03-02T01:53:01;100899.44;;;4.17;68.92
80137;BME280;76989;55.950;37.484;2024-03-02T01:55:28;100879.00;;;4.07;69.24
80137;BME280;76989;55.950;37.484;2024-03-02T01:57:57;100887.19;;;4.05;69.09
80137;BME280;76989;55.950;37.484;2024-03-02T02:00:23;100894.81;;;4.10;69.44
80137;BME280;76989;55.950;37.484;2024-03-02T02:02:52;100896.22;;;4.14;69.02
80137;BME280;76989;55.950;37.484;2024-03-02T02:05:21;100877.84;;;4.09;69.02
80137;BME280;76989;55.950;37.484;2024-03-02T02:07:47;100886.59;;;4.21;68.56
80137;BME280;76989;55.950;37.484;2024-03-02T02:10:13;100891.78;;;4.22;68.78
80137;BME280;76989;55.950;37.484;2024-03-02T02:12:39;100873.72;;;4.15;69.28
80137;BME280;76989;55.950;37.484;2024-03-02T02:15:28;100896.88;;;4.25;68.82
80137;BME280;76989;55.950;37.484;2024-03-02T02:17:55;100894.34;;;4.24;68.42
80137;BME280;76989;55.950;37.484;2024-03-02T02:20:41;100895.31;;;4.23;68.75
80137;BME280;76989;55.950;37.484;2024-03-02T02:23:07;100893.94;;;4.19;69.05
80137;BME280;76989;55.950;37.484;2024-03-02T02:25:35;100878.69;;;4.10;69.03
80137;BME280;76989;55.950;37.484;2024-03-02T02:28:01;100905.41;;;4.21;68.67
80137;BME280;76989;55.950;37.484;2024-03-02T02:30:30;100907.13;;;4.12;68.28
80137;BME280;76989;55.950;37.484;2024-03-02T02:32:57;100907.13;;;4.12;69.32
80137;BME280;76989;55.950;37.484;2024-03-02T02:35:23;100888.22;;;3.94;69.43
80137;BME280;76989;55.950;37.484;2024-03-02T02:37:54;100894.44;;;3.95;69.31
80137;BME280;76989;55.950;37.484;2024-03-02T02:40:20;100903.50;;;3.94;69.27
80137;BME280;76989;55.950;37.484;2024-03-02T02:42:46;100904.75;;;3.90;69.35
80137;BME280;76989;55.950;37.484;2024-03-02T02:45:13;100922.00;;;3.97;69.97
80137;BME280;76989;55.950;37.484;2024-03-02T02:47:41;100921.44;;;3.93;69.86
80137;BME280;76989;55.950;37.484;2024-03-02T02:50:07;100913.25;;;3.85;69.45
80137;BME280;76989;55.950;37.484;2024-03-02T02:52:34;100903.22;;;3.87;69.32
80137;BME280;76989;55.950;37.484;2024-03-02T02:55:07;100913.69;;;3.81;69.78
80137;BME280;76989;55.950;37.484;2024-03-02T02:57:34;100914.25;;;3.84;69.41
80137;BME280;76989;55.950;37.484;2024-03-02T03:00:10;100923.88;;;3.77;69.49
80137;BME280;76989;55.950;37.484;2024-03-02T03:02:42;100906.78;;;3.69;70.38
80137;BME280;76989;55.950;37.484;2024-03-02T03:05:09;100911.72;;;3.73;70.09
80137;BME280;76989;55.950;37.484;2024-03-02T03:07:37;100899.59;;;3.60;70.17
80137;BME280;76989;55.950;37.484;2024-03-02T03:10:04;100916.00;;;3.66;69.80
80137;BME280;76989;55.950;37.484;2024-03-02T03:12:32;100919.09;;;3.71;70.64
80137;BME280;76989;55.950;37.484;2024-03-02T03:14:59;100917.41;;;3.61;70.32
80137;BME280;76989;55.950;37.484;2024-03-02T03:17:26;100914.00;;;3.68;69.77
80137;BME280;76989;55.950;37.484;2024-03-02T03:19:53;100919.34;;;3.68;69.96
80137;BME280;76989;55.950;37.484;2024-03-02T03:22:19;100922.59;;;3.72;69.99
80137;BME280;76989;55.950;37.484;2024-03-02T03:24:45;100930.38;;;3.75;70.21
80137;BME280;76989;55.950;37.484;2024-03-02T03:27:11;100921.19;;;3.77;69.73
80137;BME280;76989;55.950;37.484;2024-03-02T03:29:37;100929.22;;;3.77;70.06
80137;BME280;76989;55.950;37.484;2024-03-02T03:32:04;100922.75;;;3.70;70.05
80137;BME280;76989;55.950;37.484;2024-03-02T03:34:34;100920.94;;;3.61;70.64
80137;BME280;76989;55.950;37.484;2024-03-02T03:37:00;100891.72;;;3.39;70.33
80137;BME280;76989;55.950;37.484;2024-03-02T03:39:27;100917.53;;;3.59;70.44
80137;BME280;76989;55.950;37.484;2024-03-02T03:41:54;100915.69;;;3.60;71.04
80137;BME280;76989;55.950;37.484;2024-03-02T03:44:20;100901.56;;;3.57;70.28
80137;BME280;76989;55.950;37.484;2024-03-02T03:46:46;100923.59;;;3.71;70.01
80137;BME280;76989;55.950;37.484;2024-03-02T03:49:13;100917.22;;;3.72;70.13
80137;BME280;76989;55.950;37.484;2024-03-02T03:51:39;100913.44;;;3.65;69.98
80137;BME280;76989;55.950;37.484;2024-03-02T03:54:05;100917.81;;;3.66;69.84
80137;BME280;76989;55.950;37.484;2024-03-02T03:56:32;100915.16;;;3.56;70.58
80137;BME280;76989;55.950;37.484;2024-03-02T03:58:58;100918.50;;;3.58;70.19
80137;BME280;76989;55.950;37.484;2024-03-02T04:01:26;100884.66;;;3.47;70.35
80137;BME280;76989;55.950;37.484;2024-03-02T04:03:51;100917.22;;;3.62;70.56
80137;BME280;76989;55.950;37.484;2024-03-02T04:06:17;100922.91;;;3.59;70.40
80137;BME280;76989;55.950;37.484;2024-03-02T04:08:43;100903.56;;;3.55;70.07
80137;BME280;76989;55.950;37.484;2024-03-02T04:11:09;100919.38;;;3.58;70.22
80137;BME280;76989;55.950;37.484;2024-03-02T04:13:35;100895.38;;;3.47;70.41
80137;BME280;76989;55.950;37.484;2024-03-02T04:16:01;100922.16;;;3.67;69.63
80137;BME280;76989;55.950;37.484;2024-03-02T04:18:29;100903.56;;;3.46;69.17
80137;BME280;76989;55.950;37.484;2024-03-02T04:20:58;100912.47;;;3.56;70.29
80137;BME280;76989;55.950;37.484;2024-03-02T04:23:27;100879.00;;;3.41;69.71
80137;BME280;76989;55.950;37.484;2024-03-02T04:25:53;100921.50;;;3.65;69.96
80137;BME280;76989;55.950;37.484;2024-03-02T04:28:19;100920.34;;;3.67;69.89
80137;BME280;76989;55.950;37.484;2024-03-02T04:30:45;100888.31;;;3.46;70.18
80137;BME280;76989;55.950;37.484;2024-03-02T04:33:11;100911.88;;;3.62;69.93
80137;BME280;76989;55.950;37.484;2024-03-02T04:35:37;100922.22;;;3.57;70.15
80137;BME280;76989;55.950;37.484;2024-03-02T04:38:03;100912.34;;;3.48;69.80
80137;BME280;76989;55.950;37.484;2024-03-02T04:40:29;100903.28;;;3.49;70.18
80137;BME280;76989;55.950;37.484;2024-03-02T04:42:56;100912.72;;;3.53;70.44
80137;BME280;76989;55.950;37.484;2024-03-02T04:45:24;100879.72;;;3.24;70.49
80137;BME280;76989;55.950;37.484;2024-03-02T04:47:50;100904.41;;;3.46;70.57
80137;BME280;76989;55.950;37.484;2024-03-02T04:50:16;100924.75;;;3.49;70.86
80137;BME280;76989;55.950;37.484;2024-03-02T04:52:42;100907.38;;;3.24;71.34
80137;BME280;76989;55.950;37.484;2024-03-02T04:55:08;100905.41;;;3.26;71.03
80137;BME280;76989;55.950;37.484;2024-03-02T04:57:53;100900.88;;;3.27;71.42
80137;BME280;76989;55.950;37.484;2024-03-02T05:00:20;100914.28;;;3.27;72.64
80137;BME280;76989;55.950;37.484;2024-03-02T05:02:47;100892.28;;;3.13;72.25
80137;BME280;76989;55.950;37.484;2024-03-02T05:05:13;100909.50;;;3.30;72.90
80137;BME280;76989;55.950;37.484;2024-03-02T05:07:42;100919.53;;;3.38;72.93
80137;BME280;76989;55.950;37.484;2024-03-02T05:10:10;100902.16;;;3.23;72.54
80137;BME280;76989;55.950;37.484;2024-03-02T05:12:40;100921.06;;;3.31;73.32
80137;BME280;76989;55.950;37.484;2024-03-02T05:15:14;100921.34;;;3.28;72.69
80137;BME280;76989;55.950;37.484;2024-03-02T05:17:41;100892.84;;;3.17;72.95
80137;BME280;76989;55.950;37.484;2024-03-02T05:20:11;100902.44;;;3.20;73.24
80137;BME280;76989;55.950;37.484;2024-03-02T05:22:37;100916.00;;;3.18;73.54
80137;BME280;76989;55.950;37.484;2024-03-02T05:25:04;100920.38;;;3.29;73.79
80137;BME280;76989;55.950;37.484;2024-03-02T05:27:31;100915.84;;;3.20;73.56
80137;BME280;76989;55.950;37.484;2024-03-02T05:30:00;100911.91;;;3.24;74.51
80137;BME280;76989;55.950;37.484;2024-03-02T05:32:27;100906.97;;;3.19;74.13
80137;BME280;76989;55.950;37.484;2024-03-02T05:34:53;100914.16;;;3.38;73.65
80137;BME280;76989;55.950;37.484;2024-03-02T05:37:19;100900.75;;;3.38;73.68
80137;BME280;76989;55.950;37.484;2024-03-02T05:39:46;100904.28;;;3.38;73.54
80137;BME280;76989;55.950;37.484;2024-03-02T05:42:12;100918.50;;;3.58;73.29
80137;BME280;76989;55.950;37.484;2024-03-02T05:44:38;100894.53;;;3.28;73.00
80137;BME280;76989;55.950;37.484;2024-03-02T05:47:04;100896.94;;;3.31;73.85
80137;BME280;76989;55.950;37.484;2024-03-02T05:49:30;100929.53;;;3.45;74.18
80137;BME280;76989;55.950;37.484;2024-03-02T05:51:56;100882.94;;;3.08;73.50
80137;BME280;76989;55.950;37.484;2024-03-02T05:54:22;100936.31;;;3.40;73.78
80137;BME280;76989;55.950;37.484;2024-03-02T05:56:48;100904.97;;;3.31;73.76
80137;BME280;76989;55.950;37.484;2024-03-02T05:59:14;100935.03;;;3.44;73.44
80137;BME280;76989;55.950;37.484;2024-03-02T06:01:43;100913.31;;;3.28;73.53
80137;BME280;76989;55.950;37.484;2024-03-02T06:04:10;100935.06;;;3.34;74.01
80137;BME280;76989;55.950;37.484;2024-03-02T06:06:42;100892.00;;;3.07;74.02
80137;BME280;76989;55.950;37.484;2024-03-02T06:09:08;100944.78;;;3.35;73.78
80137;BME280;76989;55.950;37.484;2024-03-02T06:11:35;100929.81;;;3.23;74.11
80137;BME280;76989;55.950;37.484;2024-03-02T06:14:06;100940.56;;;3.23;74.07
80137;BME280;76989;55.950;37.484;2024-03-02T06:16:35;100942.81;;;3.28;74.56
80137;BME280;76989;55.950;37.484;2024-03-02T06:19:03;100917.25;;;3.14;74.29
80137;BME280;76989;55.950;37.484;2024-03-02T06:21:33;100937.31;;;3.20;74.09
80137;BME280;76989;55.950;37.484;2024-03-02T06:23:59;100910.34;;;3.02;74.68
80137;BME280;76989;55.950;37.484;2024-03-02T06:26:25;100925.88;;;3.18;74.64
80137;BME280;76989;55.950;37.484;2024-03-02T06:28:51;100907.09;;;3.18;74.27
80137;BME280;76989;55.950;37.484;2024-03-02T06:31:17;100889.31;;;3.07;73.65
80137;BME280;76989;55.950;37.484;2024-03-02T06:33:43;100911.59;;;3.17;73.71
80137;BME280;76989;55.950;37.484;2024-03-02T06:36:09;100921.34;;;3.18;73.70
80137;BME280;76989;55.950;37.484;2024-03-02T06:38:37;100922.91;;;3.30;73.96
80137;BME280;76989;55.950;37.484;2024-03-02T06:41:06;100895.09;;;3.12;73.39
80137;BME280;76989;55.950;37.484;2024-03-02T06:43:34;100948.75;;;3.50;72.94
80137;BME280;76989;55.950;37.484;2024-03-02T06:46:00;100927.56;;;3.38;73.55
80137;BME280;76989;55.950;37.484;2024-03-02T06:48:27;100930.94;;;3.49;73.04
80137;BME280;76989;55.950;37.484;2024-03-02T06:50:54;100925.59;;;3.40;72.73
80137;BME280;76989;55.950;37.484;2024-03-02T06:53:21;100913.03;;;3.40;73.40
80137;BME280;76989;55.950;37.484;2024-03-02T06:55:48;100899.19;;;3.35;72.57
80137;BME280;76989;55.950;37.484;2024-03-02T06:58:14;100907.81;;;3.39;72.13
80137;BME280;76989;55.950;37.484;2024-03-02T07:00:45;100914.31;;;3.46;71.82
80137;BME280;76989;55.950;37.484;2024-03-02T07:03:13;100912.59;;;3.45;72.74
80137;BME280;76989;55.950;37.484;2024-03-02T07:05:41;100952.97;;;3.72;72.11
80137;BME280;76989;55.950;37.484;2024-03-02T07:08:08;100949.00;;;3.76;72.00
80137;BME280;76989;55.950;37.484;2024-03-02T07:10:34;100934.88;;;3.84;71.36
80137;BME280;76989;55.950;37.484;2024-03-02T07:13:00;100944.06;;;3.72;70.84
80137;BME280;76989;55.950;37.484;2024-03-02T07:15:26;100943.66;;;3.67;72.23
80137;BME280;76989;55.950;37.484;2024-03-02T07:17:52;100890.88;;;3.48;71.72
80137;BME280;76989;55.950;37.484;2024-03-02T07:20:18;100901.72;;;3.66;70.97
80137;BME280;76989;55.950;37.484;2024-03-02T07:22:46;100901.72;;;3.56;71.00
80137;BME280;76989;55.950;37.484;2024-03-02T07:25:13;100946.59;;;3.92;70.98
80137;BME280;76989;55.950;37.484;2024-03-02T07:27:40;100946.47;;;3.94;71.33
80137;BME280;76989;55.950;37.484;2024-03-02T07:30:09;100913.13;;;3.77;71.03
80137;BME280;76989;55.950;37.484;2024-03-02T07:32:36;100950.22;;;4.11;70.97
80137;BME280;76989;55.950;37.484;2024-03-02T07:35:03;100904.50;;;3.83;70.78
80137;BME280;76989;55.950;37.484;2024-03-02T07:37:31;100941.91;;;3.94;71.22
80137;BME280;76989;55.950;37.484;2024-03-02T07:39:57;100901.00;;;3.73;70.53
80137;BME280;76989;55.950;37.484;2024-03-02T07:42:24;100912.28;;;3.77;70.48
80137;BME280;76989;55.950;37.484;2024-03-02T07:44:50;100937.41;;;3.95;70.36
80137;BME280;76989;55.950;37.484;2024-03-02T07:47:16;100904.22;;;3.86;70.36
80137;BME280;76989;55.950;37.484;2024-03-02T07:49:44;100890.66;;;3.78;69.69
80137;BME280;76989;55.950;37.484;2024-03-02T07:52:11;100926.81;;;3.93;69.73
80137;BME280;76989;55.950;37.484;2024-03-02T07:54:37;100915.94;;;3.85;70.54
80137;BME280;76989;55.950;37.484;2024-03-02T07:57:03;100927.22;;;3.98;69.89
80137;BME280;76989;55.950;37.484;2024-03-02T07:59:30;100923.69;;;3.98;69.34
80137;BME280;76989;55.950;37.484;2024-03-02T08:01:56;100916.16;;;4.11;69.54
80137;BME280;76989;55.950;37.484;2024-03-02T08:04:22;100900.94;;;4.02;68.75
80137;BME280;76989;55.950;37.484;2024-03-02T08:06:49;100889.34;;;3.92;68.72
80137;BME280;76989;55.950;37.484;2024-03-02T08:09:15;100916.41;;;4.18;68.24
80137;BME280;76989;55.950;37.484;2024-03-02T08:11:41;100891.91;;;3.93;68.38
80137;BME280;76989;55.950;37.484;2024-03-02T08:14:06;100913.63;;;4.00;68.43
80137;BME280;76989;55.950;37.484;2024-03-02T08:16:33;100915.22;;;4.03;67.84
80137;BME280;76989;55.950;37.484;2024-03-02T08:18:59;100928.31;;;4.15;68.08
80137;BME280;76989;55.950;37.484;2024-03-02T08:21:25;100893.56;;;4.04;67.74
80137;BME280;76989;55.950;37.484;2024-03-02T08:23:51;100887.06;;;4.07;67.64
80137;BME280;76989;55.950;37.484;2024-03-02T08:26:17;100930.19;;;4.42;67.52
80137;BME280;76989;55.950;37.484;2024-03-02T08:28:43;100921.41;;;4.40;65.96
80137;BME280;76989;55.950;37.484;2024-03-02T08:31:09;100921.94;;;4.53;65.54
80137;BME280;76989;55.950;37.484;2024-03-02T08:33:36;100923.28;;;4.67;65.81
80137;BME280;76989;55.950;37.484;2024-03-02T08:36:02;100927.47;;;4.79;65.36
80137;BME280;76989;55.950;37.484;2024-03-02T08:38:29;100930.09;;;4.88;65.69
80137;BME280;76989;55.950;37.484;2024-03-02T08:40:55;100899.13;;;4.84;64.97
80137;BME280;76989;55.950;37.484;2024-03-02T08:43:21;100920.59;;;4.94;64.35
80137;BME280;76989;55.950;37.484;2024-03-02T08:45:49;100923.88;;;4.88;64.60
80137;BME280;76989;55.950;37.484;2024-03-02T08:48:16;100855.59;;;4.54;64.80
80137;BME280;76989;55.950;37.484;2024-03-02T08:50:42;100882.13;;;4.66;64.97
80137;BME280;76989;55.950;37.484;2024-03-02T08:53:08;100892.41;;;4.71;64.21
80137;BME280;76989;55.950;37.484;2024-03-02T08:55:34;100880.72;;;4.62;64.48
80137;BME280;76989;55.950;37.484;2024-03-02T08:58:01;100920.34;;;4.87;64.42
80137;BME280;76989;55.950;37.484;2024-03-02T09:00:27;100882.22;;;4.47;64.97
80137;BME280;76989;55.950;37.484;2024-03-02T09:02:53;100909.72;;;4.59;64.82
80137;BME280;76989;55.950;37.484;2024-03-02T09:05:19;100900.53;;;4.61;64.75
80137;BME280;76989;55.950;37.484;2024-03-02T09:07:45;100918.41;;;4.80;64.50
80137;BME280;76989;55.950;37.484;2024-03-02T09:10:11;100879.72;;;4.63;64.84
80137;BME280;76989;55.950;37.484;2024-03-02T09:12:38;100876.88;;;4.65;64.23
80137;BME280;76989;55.950;37.484;2024-03-02T09:15:05;100911.94;;;4.90;64.71
80137;BME280;76989;55.950;37.484;2024-03-02T09:17:35;100913.50;;;4.93;63.97
80137;BME280;76989;55.950;37.484;2024-03-02T09:20:01;100891.88;;;4.67;64.07
80137;BME280;76989;55.950;37.484;2024-03-02T09:22:28;100912.09;;;4.71;64.01
80137;BME280;76989;55.950;37.484;2024-03-02T09:24:54;100911.25;;;4.71;64.40
80137;BME280;76989;55.950;37.484;2024-03-02T09:27:20;100913.06;;;4.70;63.98
80137;BME280;76989;55.950;37.484;2024-03-02T09:29:46;100883.69;;;4.59;63.79
80137;BME280;76989;55.950;37.484;2024-03-02T09:32:13;100899.59;;;4.80;64.37
80137;BME280;76989;55.950;37.484;2024-03-02T09:34:40;100879.13;;;4.69;63.54
80137;BME280;76989;55.950;37.484;2024-03-02T09:37:07;100866.66;;;4.68;63.83
80137;BME280;76989;55.950;37.484;2024-03-02T09:39:33;100862.19;;;4.59;63.19
80137;BME280;76989;55.950;37.484;2024-03-02T09:42:00;100893.34;;;4.79;63.12
80137;BME280;76989;55.950;37.484;2024-03-02T09:44:26;100891.00;;;4.94;62.67
80137;BME280;76989;55.950;37.484;2024-03-02T09:46:52;100899.75;;;4.96;62.70
80137;BME280;76989;55.950;37.484;2024-03-02T09:49:18;100895.59;;;5.02;62.72
80137;BME280;76989;55.950;37.484;2024-03-02T09:51:47;100866.09;;;4.92;62.31
80137;BME280;76989;55.950;37.484;2024-03-02T09:54:17;100883.16;;;5.01;62.24
80137;BME280;76989;55.950;37.484;2024-03-02T09:56:45;100892.72;;;5.13;62.28
80137;BME280;76989;55.950;37.484;2024-03-02T09:59:12;100888.25;;;5.21;61.88
80137;BME280;76989;55.950;37.484;2024-03-02T10:01:58;100872.56;;;5.17;61.55
80137;BME280;76989;55.950;37.484;2024-03-02T10:04:26;100893.84;;;5.28;61.44
80137;BME280;76989;55.950;37.484;2024-03-02T10:09:35;100849.50;;;4.97;61.57
80137;BME280;76989;55.950;37.484;2024-03-02T10:12:04;100871.94;;;5.23;61.12
80137;BME280;76989;55.950;37.484;2024-03-02T10:14:31;100904.59;;;5.28;61.57
80137;BME280;76989;55.950;37.484;2024-03-02T10:17:09;100898.56;;;5.26;60.71
80137;BME280;76989;55.950;37.484;2024-03-02T10:19:35;100885.56;;;5.21;61.53
80137;BME280;76989;55.950;37.484;2024-03-02T10:22:07;100860.03;;;5.08;60.60
80137;BME280;76989;55.950;37.484;2024-03-02T10:24:42;100909.00;;;5.29;60.52
80137;BME280;76989;55.950;37.484;2024-03-02T10:27:15;100912.66;;;5.46;60.47
80137;BME280;76989;55.950;37.484;2024-03-02T10:29:42;100901.91;;;5.28;60.72
80137;BME280;76989;55.950;37.484;2024-03-02T10:32:09;100907.41;;;5.36;60.93
80137;BME280;76989;55.950;37.484;2024-03-02T10:34:40;100910.75;;;5.38;60.55
80137;BME280;76989;55.950;37.484;2024-03-02T10:37:49;100923.63;;;5.44;60.71
80137;BME280;76989;55.950;37.484;2024-03-02T10:40:21;100895.31;;;5.40;59.93
80137;BME280;76989;55.950;37.484;2024-03-02T10:42:50;100917.38;;;5.61;59.97
80137;BME280;76989;55.950;37.484;2024-03-02T10:45:19;100896.81;;;5.60;59.66
80137;BME280;76989;55.950;37.484;2024-03-02T10:47:46;100909.19;;;5.71;59.73
80137;BME280;76989;55.950;37.484;2024-03-02T10:50:13;100901.16;;;5.53;59.91
80137;BME280;76989;55.950;37.484;2024-03-02T10:52:39;100892.59;;;5.58;60.38
80137;BME280;76989;55.950;37.484;2024-03-02T10:55:09;100919.59;;;5.66;60.12
80137;BME280;76989;55.950;37.484;2024-03-02T10:57:56;100917.66;;;5.76;59.85
80137;BME280;76989;55.950;37.484;2024-03-02T11:00:33;100923.88;;;5.76;59.71
80137;BME280;76989;55.950;37.484;2024-03-02T11:03:07;100894.78;;;5.54;59.67
80137;BME280;76989;55.950;37.484;2024-03-02T11:05:41;100896.81;;;5.60;60.10
80137;BME280;76989;55.950;37.484;2024-03-02T11:08:13;100906.81;;;5.68;59.76
80137;BME280;76989;55.950;37.484;2024-03-02T11:10:50;100868.84;;;5.53;59.32
80137;BME280;76989;55.950;37.484;2024-03-02T11:13:22;100913.88;;;5.87;59.86
80137;BME280;76989;55.950;37.484;2024-03-02T11:15:55;100905.41;;;5.82;59.36
80137;BME280;76989;55.950;37.484;2024-03-02T11:18:22;100917.28;;;5.89;59.40
80137;BME280;76989;55.950;37.484;2024-03-02T11:20:49;100899.84;;;5.83;58.95
80137;BME280;76989;55.950;37.484;2024-03-02T11:23:17;100903.31;;;5.93;59.07
80137;BME280;76989;55.950;37.484;2024-03-02T11:25:43;100912.03;;;5.87;59.79
80137;BME280;76989;55.950;37.484;2024-03-02T11:28:09;100898.44;;;5.71;59.38
80137;BME280;76989;55.950;37.484;2024-03-02T11:33:07;100910.47;;;5.59;59.54
80137;BME280;76989;55.950;37.484;2024-03-02T11:38:03;100912.66;;;5.46;59.67
80137;BME280;76989;55.950;37.484;2024-03-02T11:40:30;100893.22;;;5.52;59.62
80137;BME280;76989;55.950;37.484;2024-03-02T11:42:59;100888.81;;;5.51;59.00
80137;BME280;76989;55.950;37.484;2024-03-02T11:45:29;100898.38;;;5.63;59.00
80137;BME280;76989;55.950;37.484;2024-03-02T11:47:57;100884.28;;;5.51;58.96
80137;BME280;76989;55.950;37.484;2024-03-02T11:50:30;100882.59;;;5.50;59.56
80137;BME280;76989;55.950;37.484;2024-03-02T11:52:58;100889.50;;;5.70;58.74
80137;BME280;76989;55.950;37.484;2024-03-02T11:55:25;100897.81;;;5.59;58.44
80137;BME280;76989;55.950;37.484;2024-03-02T11:57:53;100879.31;;;5.39;58.66
80137;BME280;76989;55.950;37.484;2024-03-02T12:00:20;100900.44;;;5.51;58.52
80137;BME280;76989;55.950;37.484;2024-03-02T12:02:47;100892.84;;;5.47;59.05
80137;BME280;76989;55.950;37.484;2024-03-02T12:05:26;100900.84;;;5.39;59.01
80137;BME280;76989;55.950;37.484;2024-03-02T12:08:00;100879.84;;;5.24;59.09
80137;BME280;76989;55.950;37.484;2024-03-02T12:10:29;100881.56;;;5.25;59.57
80137;BME280;76989;55.950;37.484;2024-03-02T12:13:06;100891.47;;;5.43;58.98
80137;BME280;76989;55.950;37.484;2024-03-02T12:15:34;100881.41;;;5.45;58.78
80137;BME280;76989;55.950;37.484;2024-03-02T12:18:03;100890.91;;;5.57;59.14
80137;BME280;76989;55.950;37.484;2024-03-02T12:20:30;100882.94;;;5.29;59.18
80137;BME280;76989;55.950;37.484;2024-03-02T12:22:59;100891.84;;;5.30;58.52
80137;BME280;76989;55.950;37.484;2024-03-02T12:25:26;100904.44;;;5.47;58.76
80137;BME280;76989;55.950;37.484;2024-03-02T12:27:54;100903.41;;;5.40;58.32
80137;BME280;76989;55.950;37.484;2024-03-02T12:30:21;100896.63;;;5.36;58.40
80137;BME280;76989;55.950;37.484;2024-03-02T12:32:48;100898.53;;;5.44;58.55
80137;BME280;76989;55.950;37.484;2024-03-02T12:35:14;100895.25;;;5.50;58.58
80137;BME280;76989;55.950;37.484;2024-03-02T12:37:45;100889.53;;;5.53;58.11
80137;BME280;76989;55.950;37.484;2024-03-02T12:40:12;100893.63;;;5.39;58.41
80137;BME280;76989;55.950;37.484;2024-03-02T12:42:39;100907.47;;;5.44;58.78
80137;BME280;76989;55.950;37.484;2024-03-02T12:45:06;100899.78;;;5.31;58.73
80137;BME280;76989;55.950;37.484;2024-03-02T12:47:33;100863.56;;;5.08;58.86
80137;BME280;76989;55.950;37.484;2024-03-02T12:50:00;100890.88;;;5.31;58.55
80137;BME280;76989;55.950;37.484;2024-03-02T12:52:26;100870.25;;;5.22;58.33
80137;BME280;76989;55.950;37.484;2024-03-02T12:54:52;100893.00;;;5.27;58.59
80137;BME280;76989;55.950;37.484;2024-03-02T12:57:25;100864.56;;;5.07;58.71
80137;BME280;76989;55.950;37.484;2024-03-02T12:59:51;100869.25;;;5.05;58.44
80137;BME280;76989;55.950;37.484;2024-03-02T13:02:18;100898.31;;;5.02;59.14